Youngstown, Ohio
Current Conditions -  °F | °C
As of 7:51 PM on Tuesday 21 Oct 2014 (Local Time) from KYNG Reporting Station
Light Rain Light Rain  
Wind Chill: 42°   Ceiling: 600
Heat Index: 47°   Visibility: 5mi
Dew Point: 45°   Wind: 12mph
Humidity: 93%   Direction: 320°NW
Pressure: 30"   Gusts: NA
Location:  41.1°N, 80.65°W
Report Text: KYNG 212351Z 32010KT 5SM -RA BR OVC006 08/07 A3000 RMK AO2 SLP161 P0001 60002 T00830072 10094 20083 52015
Loading
Personal Weather Stations






























Interactive Weather Map New forecast layout! Learn more

10-Day Weather Forecast

Advertisements
Track Severe Weather on mobile